createdAt,value
2022-08-20T00:02:16.630Z,25.60
2022-08-20T00:04:48.287Z,25.60
2022-08-20T00:07:16.560Z,25.50
2022-08-20T00:09:44.854Z,25.50
2022-08-20T00:12:17.228Z,25.50
2022-08-20T00:14:45.307Z,25.40
2022-08-20T00:17:13.351Z,25.40
2022-08-20T00:19:41.706Z,25.40
2022-08-20T00:22:11.087Z,25.30
2022-08-20T00:24:39.112Z,25.30
2022-08-20T00:27:07.336Z,25.20
2022-08-20T00:29:35.419Z,25.10
2022-08-20T00:32:03.648Z,25.10
2022-08-20T00:34:31.924Z,25.00
2022-08-20T00:37:00.111Z,25.00
2022-08-20T00:39:29.491Z,25.00
2022-08-20T00:41:59.736Z,24.90
2022-08-20T00:44:28.683Z,24.90
2022-08-20T00:46:56.957Z,24.90
2022-08-20T00:49:27.982Z,24.80
2022-08-20T00:52:00.068Z,24.80
2022-08-20T00:54:34.742Z,24.70
2022-08-20T00:57:06.661Z,24.70
2022-08-20T00:59:37.358Z,24.70
2022-08-20T01:02:08.696Z,24.70
2022-08-20T01:04:37.854Z,24.60
2022-08-20T01:07:07.476Z,24.60
2022-08-20T01:09:58.303Z,24.60
2022-08-20T01:12:28.217Z,24.60
2022-08-20T01:14:58.496Z,24.60
2022-08-20T01:17:30.076Z,24.60
2022-08-20T01:20:02.456Z,24.60
2022-08-20T01:22:55.905Z,24.60
2022-08-20T01:25:34.231Z,24.60
2022-08-20T01:28:04.823Z,24.60
2022-08-20T01:30:33.715Z,24.50
2022-08-20T01:33:02.603Z,24.50
2022-08-20T01:35:31.085Z,24.50
2022-08-20T01:37:59.281Z,24.50
2022-08-20T01:40:44.665Z,24.40
2022-08-20T01:43:14.263Z,24.50
2022-08-20T01:45:43.024Z,24.40
2022-08-20T01:48:15.069Z,24.40
2022-08-20T01:50:50.701Z,24.40
2022-08-20T01:53:26.407Z,24.30
2022-08-20T01:55:54.426Z,24.20
2022-08-20T01:58:23.864Z,24.10
2022-08-20T02:00:51.948Z,24.10
2022-08-20T02:03:20.010Z,24.00
2022-08-20T02:05:48.098Z,24.00
2022-08-20T02:08:19.150Z,24.00
2022-08-20T02:10:47.510Z,24.00
2022-08-20T02:13:16.432Z,23.90
2022-08-20T02:15:46.086Z,23.90
2022-08-20T02:18:16.978Z,23.90
2022-08-20T02:20:46.043Z,23.90
2022-08-20T02:23:15.697Z,23.80
2022-08-20T02:25:48.468Z,23.90
2022-08-20T02:28:19.807Z,23.80
2022-08-20T02:30:52.218Z,23.80
2022-08-20T02:33:24.199Z,23.80
2022-08-20T02:35:53.877Z,23.70
2022-08-20T02:38:21.917Z,23.80
2022-08-20T02:40:50.752Z,23.70
2022-08-20T02:43:20.236Z,23.70
2022-08-20T02:45:49.846Z,23.70
2022-08-20T02:48:20.998Z,23.60
2022-08-20T02:50:52.480Z,23.60
2022-08-20T02:53:20.823Z,23.60
2022-08-20T02:55:48.914Z,23.50
2022-08-20T02:58:17.615Z,23.50
2022-08-20T03:00:45.803Z,23.40
2022-08-20T03:03:17.069Z,23.30
2022-08-20T03:05:45.885Z,23.30
2022-08-20T03:08:14.867Z,23.30
2022-08-20T03:10:45.356Z,23.30
2022-08-20T03:13:14.414Z,23.30
2022-08-20T03:15:44.693Z,23.30
2022-08-20T03:18:13.696Z,23.30
2022-08-20T03:20:43.295Z,23.30
2022-08-20T03:23:14.670Z,23.30
2022-08-20T03:25:43.137Z,23.30
2022-08-20T03:28:11.822Z,23.30
2022-08-20T03:30:40.607Z,23.30
2022-08-20T03:33:09.261Z,23.30
2022-08-20T03:35:38.242Z,23.30
2022-08-20T03:38:11.463Z,23.30
2022-08-20T03:40:40.029Z,23.30
2022-08-20T03:43:09.766Z,23.30
2022-08-20T03:45:43.871Z,23.30
2022-08-20T03:48:14.440Z,23.30
2022-08-20T03:50:43.423Z,23.30
2022-08-20T03:53:14.860Z,23.30
2022-08-20T03:55:45.360Z,23.30
2022-08-20T03:58:21.704Z,23.30
2022-08-20T04:00:59.754Z,23.40
2022-08-20T04:03:28.513Z,23.40
2022-08-20T04:05:56.594Z,23.40
2022-08-20T04:08:29.377Z,23.40
2022-08-20T04:10:59.811Z,23.40
2022-08-20T04:13:29.908Z,23.40
2022-08-20T04:15:58.819Z,23.50
2022-08-20T04:18:28.256Z,23.50
2022-08-20T04:20:56.415Z,23.50
2022-08-20T04:23:25.863Z,23.60
2022-08-20T04:25:56.480Z,23.60
2022-08-20T04:28:28.707Z,23.60
2022-08-20T04:30:59.043Z,23.60
2022-08-20T04:33:33.920Z,23.70
2022-08-20T04:36:06.353Z,23.70
2022-08-20T04:38:47.947Z,23.70
2022-08-20T04:41:22.582Z,23.80
2022-08-20T04:43:51.964Z,23.90
2022-08-20T04:46:20.359Z,23.90
2022-08-20T04:48:49.085Z,23.90
2022-08-20T04:51:19.595Z,24.00
2022-08-20T04:53:54.420Z,24.00
2022-08-20T04:56:27.701Z,24.00
2022-08-20T04:58:57.925Z,24.10
2022-08-20T05:01:26.715Z,24.10
2022-08-20T05:03:56.354Z,24.10
2022-08-20T05:06:28.662Z,24.10
2022-08-20T05:08:59.719Z,24.10
2022-08-20T05:11:33.611Z,24.10
2022-08-20T05:14:05.566Z,24.10
2022-08-20T05:16:38.323Z,24.10
2022-08-20T05:19:07.114Z,24.10
2022-08-20T05:21:35.204Z,24.10
2022-08-20T05:24:05.266Z,24.20
2022-08-20T05:26:34.310Z,24.20
2022-08-20T05:29:05.300Z,24.20
2022-08-20T05:31:34.889Z,24.20
2022-08-20T05:34:03.829Z,24.20
2022-08-20T05:36:32.125Z,24.10
2022-08-20T05:39:00.305Z,24.20
2022-08-20T05:41:30.573Z,24.30
2022-08-20T05:44:01.897Z,24.30
2022-08-20T05:46:32.345Z,24.30
2022-08-20T05:49:01.838Z,24.40
2022-08-20T05:51:30.486Z,24.50
2022-08-20T05:53:59.439Z,24.60
2022-08-20T05:56:31.273Z,24.70
2022-08-20T05:59:03.127Z,24.80
2022-08-20T06:01:32.009Z,25.00
2022-08-20T06:04:17.942Z,25.10
2022-08-20T06:06:47.366Z,25.20
2022-08-20T06:09:28.597Z,25.20
2022-08-20T06:12:08.998Z,25.30
2022-08-20T06:14:37.571Z,25.40
2022-08-20T06:17:07.824Z,25.40
2022-08-20T06:19:37.511Z,25.40
2022-08-20T06:22:18.319Z,25.40
2022-08-20T06:24:52.573Z,25.40
2022-08-20T06:27:22.753Z,25.50
2022-08-20T06:29:51.947Z,25.50
2022-08-20T06:32:31.867Z,25.60
2022-08-20T06:35:03.683Z,25.80
2022-08-20T06:37:32.906Z,26.00
2022-08-20T06:40:04.302Z,26.10
2022-08-20T06:42:33.950Z,26.20
2022-08-20T06:45:04.817Z,26.30
2022-08-20T06:47:34.193Z,26.40
2022-08-20T06:50:02.317Z,26.40
2022-08-20T06:52:47.137Z,26.50
2022-08-20T06:55:18.871Z,26.50
2022-08-20T06:57:48.886Z,26.50
2022-08-20T07:00:19.543Z,26.50
2022-08-20T07:02:48.205Z,26.40
2022-08-20T07:05:17.019Z,26.50
2022-08-20T07:07:46.935Z,26.50
2022-08-20T07:10:16.952Z,26.60
2022-08-20T07:12:46.878Z,26.80
2022-08-20T07:15:16.987Z,27.10
2022-08-20T07:17:50.962Z,27.40
2022-08-20T07:20:19.085Z,27.50
2022-08-20T07:22:47.212Z,27.60
2022-08-20T07:25:17.820Z,27.60
2022-08-20T07:27:46.841Z,27.60
2022-08-20T07:30:55.904Z,27.70
2022-08-20T07:33:24.467Z,27.70
2022-08-20T07:35:52.758Z,27.80
2022-08-20T07:38:24.582Z,27.90
2022-08-20T07:40:54.391Z,28.10
2022-08-20T07:43:24.194Z,28.60
2022-08-20T07:45:56.478Z,29.10
2022-08-20T07:48:31.103Z,29.90
2022-08-20T07:51:02.985Z,30.60
2022-08-20T07:53:35.652Z,31.60
2022-08-20T07:56:08.485Z,32.50
2022-08-20T07:58:38.423Z,33.20
2022-08-20T08:01:09.519Z,33.70
2022-08-20T08:03:49.310Z,34.00
2022-08-20T08:06:28.706Z,34.30
2022-08-20T08:09:04.361Z,33.90
2022-08-20T08:11:35.499Z,33.60
2022-08-20T08:14:05.388Z,33.20
2022-08-20T08:16:35.523Z,33.50
2022-08-20T08:19:06.660Z,33.50
2022-08-20T08:21:35.132Z,33.50
2022-08-20T08:24:03.237Z,33.70
2022-08-20T08:26:33.598Z,34.00
2022-08-20T08:29:02.672Z,34.20
2022-08-20T08:31:30.853Z,34.30
2022-08-20T08:34:00.511Z,34.60
2022-08-20T08:36:28.643Z,34.70
2022-08-20T08:38:56.874Z,34.60
2022-08-20T08:41:31.950Z,34.30
2022-08-20T08:44:07.408Z,34.00
2022-08-20T08:46:41.411Z,33.60
2022-08-20T08:49:13.946Z,33.30
2022-08-20T08:51:44.148Z,33.00
2022-08-20T08:54:17.562Z,32.80
2022-08-20T08:56:50.212Z,32.90
2022-08-20T08:59:19.968Z,33.50
2022-08-20T09:01:54.210Z,34.10
2022-08-20T09:04:31.764Z,34.30
2022-08-20T09:07:02.899Z,34.30
2022-08-20T09:09:34.095Z,34.50
2022-08-20T09:12:06.782Z,34.70
2022-08-20T09:14:35.953Z,34.90
2022-08-20T09:17:04.897Z,34.80
2022-08-20T09:19:34.639Z,34.60
2022-08-20T09:22:09.640Z,34.40
2022-08-20T09:24:38.220Z,34.30
2022-08-20T09:27:06.829Z,34.30
2022-08-20T09:29:35.484Z,34.60
2022-08-20T09:32:07.882Z,35.10
2022-08-20T09:34:40.203Z,35.60
2022-08-20T09:37:08.936Z,36.00
2022-08-20T09:39:37.430Z,36.40
2022-08-20T09:42:10.218Z,36.60
2022-08-20T09:44:38.754Z,36.80
2022-08-20T09:47:07.216Z,37.00
2022-08-20T09:49:37.363Z,37.20
2022-08-20T09:52:11.322Z,37.30
2022-08-20T09:54:46.344Z,37.40
2022-08-20T09:57:16.509Z,37.40
2022-08-20T09:59:45.622Z,37.30
2022-08-20T10:02:13.607Z,37.20
2022-08-20T10:04:41.761Z,37.30
2022-08-20T10:07:11.835Z,37.20
2022-08-20T10:09:44.221Z,37.20
2022-08-20T10:12:12.858Z,37.40
2022-08-20T10:14:41.109Z,37.40
2022-08-20T10:17:09.177Z,37.40
2022-08-20T10:19:37.324Z,37.40
2022-08-20T10:22:05.833Z,37.40
2022-08-20T10:24:35.895Z,37.40
2022-08-20T10:27:04.196Z,37.40
2022-08-20T10:29:32.779Z,37.30
2022-08-20T10:32:12.478Z,37.10
2022-08-20T10:34:41.561Z,36.90
2022-08-20T10:37:09.803Z,36.90
2022-08-20T10:39:39.430Z,36.90
2022-08-20T10:42:07.683Z,36.90
2022-08-20T10:44:35.831Z,36.90
2022-08-20T10:47:15.725Z,37.00
2022-08-20T10:49:43.854Z,37.10
2022-08-20T10:52:12.253Z,37.00
2022-08-20T10:54:42.316Z,37.00
2022-08-20T10:57:14.011Z,37.10
2022-08-20T10:59:43.778Z,37.10
2022-08-20T11:02:13.365Z,37.10
2022-08-20T11:04:42.040Z,37.00
2022-08-20T11:07:15.700Z,37.00
2022-08-20T11:09:46.552Z,36.90
2022-08-20T11:12:14.927Z,36.90
2022-08-20T11:14:43.190Z,36.80
2022-08-20T11:17:11.421Z,36.70
2022-08-20T11:19:44.562Z,36.60
2022-08-20T11:22:12.798Z,36.60
2022-08-20T11:24:41.032Z,36.50
2022-08-20T11:27:11.531Z,36.40
2022-08-20T11:29:40.090Z,36.40
2022-08-20T11:32:10.293Z,36.30
2022-08-20T11:34:38.399Z,36.30
2022-08-20T11:37:06.659Z,36.30
2022-08-20T11:39:37.507Z,36.30
2022-08-20T11:42:11.047Z,36.30
2022-08-20T11:44:39.303Z,36.40
2022-08-20T11:47:08.722Z,36.50
2022-08-20T11:49:38.323Z,36.50
2022-08-20T11:52:07.130Z,36.50
2022-08-20T11:54:35.326Z,36.30
2022-08-20T11:57:04.770Z,36.30
2022-08-20T11:59:34.242Z,36.30
2022-08-20T12:02:03.726Z,36.40
2022-08-20T12:04:33.525Z,36.40
2022-08-20T12:07:10.341Z,36.30
2022-08-20T12:09:42.917Z,36.20
2022-08-20T12:12:19.543Z,36.10
2022-08-20T12:14:49.132Z,35.90
2022-08-20T12:17:21.345Z,35.70
2022-08-20T12:19:49.576Z,35.60
2022-08-20T12:22:24.501Z,35.50
2022-08-20T12:24:53.816Z,35.30
2022-08-20T12:27:23.689Z,35.30
2022-08-20T12:29:54.938Z,35.20
2022-08-20T12:32:24.766Z,35.20
2022-08-20T12:34:52.917Z,35.00
2022-08-20T12:37:23.135Z,34.90
2022-08-20T12:39:54.484Z,34.80
2022-08-20T12:42:25.450Z,34.80
2022-08-20T12:44:54.966Z,34.90
2022-08-20T12:47:25.256Z,34.80
2022-08-20T12:49:55.507Z,34.80
2022-08-20T12:52:25.718Z,34.80
2022-08-20T12:54:54.737Z,34.80
2022-08-20T12:57:28.815Z,34.60
2022-08-20T13:00:00.204Z,34.50
2022-08-20T13:02:29.354Z,34.40
2022-08-20T13:05:00.141Z,34.40
2022-08-20T13:07:31.608Z,34.30
2022-08-20T13:10:00.511Z,34.30
2022-08-20T13:12:29.565Z,34.20
2022-08-20T13:14:59.158Z,34.10
2022-08-20T13:17:38.677Z,34.00
2022-08-20T13:20:11.085Z,33.90
2022-08-20T13:22:39.343Z,33.80
2022-08-20T13:25:08.390Z,33.80
2022-08-20T13:27:38.458Z,33.70
2022-08-20T13:30:10.876Z,33.70
2022-08-20T13:32:39.098Z,33.60
2022-08-20T13:35:08.251Z,33.60
2022-08-20T13:37:36.469Z,33.50
2022-08-20T13:40:06.000Z,33.50
2022-08-20T13:42:35.166Z,33.50
2022-08-20T13:45:04.001Z,33.40
2022-08-20T13:47:37.161Z,33.40
2022-08-20T13:50:09.891Z,33.40
2022-08-20T13:52:39.293Z,33.30
2022-08-20T13:55:13.083Z,33.10
2022-08-20T13:57:42.005Z,33.10
2022-08-20T14:00:14.789Z,33.10
2022-08-20T14:02:44.759Z,33.10
2022-08-20T14:05:16.114Z,33.10
2022-08-20T14:07:50.613Z,33.00
2022-08-20T14:10:22.447Z,33.00
2022-08-20T14:12:53.024Z,33.00
2022-08-20T14:15:21.386Z,33.00
2022-08-20T14:17:53.241Z,33.00
2022-08-20T14:20:24.602Z,32.90
2022-08-20T14:22:58.266Z,32.80
2022-08-20T14:25:26.931Z,32.70
2022-08-20T14:27:55.323Z,32.70
2022-08-20T14:30:28.231Z,32.70
2022-08-20T14:32:57.962Z,32.70
2022-08-20T14:35:26.558Z,32.70
2022-08-20T14:37:56.661Z,32.70
2022-08-20T14:40:27.509Z,32.60
2022-08-20T14:42:56.792Z,32.60
2022-08-20T14:45:25.261Z,32.60
2022-08-20T14:47:55.305Z,32.60
2022-08-20T14:50:27.782Z,32.50
2022-08-20T14:52:56.906Z,32.50
2022-08-20T14:55:27.712Z,32.50
2022-08-20T14:57:55.992Z,32.40
2022-08-20T15:00:26.659Z,32.40
2022-08-20T15:02:54.833Z,32.40
2022-08-20T15:05:24.643Z,32.40
2022-08-20T15:07:54.167Z,32.40
2022-08-20T15:10:25.291Z,32.30
2022-08-20T15:12:53.371Z,32.30
2022-08-20T15:15:22.023Z,32.20
2022-08-20T15:17:52.580Z,32.20
2022-08-20T15:20:23.207Z,32.20
2022-08-20T15:22:53.091Z,32.10
2022-08-20T15:25:24.381Z,32.00
2022-08-20T15:27:55.420Z,32.00
2022-08-20T15:30:29.983Z,32.00
2022-08-20T15:32:58.571Z,32.00
2022-08-20T15:35:28.393Z,32.00
2022-08-20T15:37:59.385Z,31.90
2022-08-20T15:40:30.410Z,31.90
2022-08-20T15:42:59.519Z,31.90
2022-08-20T15:45:28.289Z,31.90
2022-08-20T15:48:03.067Z,31.80
2022-08-20T15:50:58.310Z,31.80
2022-08-20T15:53:33.265Z,31.70
2022-08-20T15:56:13.137Z,31.60
2022-08-20T15:58:49.734Z,31.50
2022-08-20T16:01:25.654Z,31.40
2022-08-20T16:04:29.726Z,31.30
2022-08-20T16:07:03.969Z,31.20
2022-08-20T16:09:43.442Z,31.10
2022-08-20T16:12:17.379Z,30.90
2022-08-20T16:14:48.638Z,30.90
2022-08-20T16:17:21.797Z,30.80
2022-08-20T16:19:56.987Z,30.70
2022-08-20T16:22:30.286Z,30.60
2022-08-20T16:25:00.381Z,30.50
2022-08-20T16:27:35.847Z,30.30
2022-08-20T16:30:07.421Z,30.20
2022-08-20T16:32:42.790Z,30.10
2022-08-20T16:35:29.920Z,30.10
2022-08-20T16:38:05.153Z,30.00
2022-08-20T16:40:44.276Z,30.00
2022-08-20T16:43:22.380Z,30.00
2022-08-20T16:45:54.947Z,30.00
2022-08-20T16:48:23.796Z,29.90
2022-08-20T16:51:02.569Z,29.80
2022-08-20T16:53:30.784Z,29.80
2022-08-20T16:56:00.354Z,29.70
2022-08-20T16:58:28.573Z,29.70
2022-08-20T17:01:08.720Z,29.60
2022-08-20T17:03:40.278Z,29.50
2022-08-20T17:06:18.429Z,29.40
2022-08-20T17:08:51.097Z,29.40
2022-08-20T17:11:27.085Z,29.20
2022-08-20T17:14:09.573Z,29.10
2022-08-20T17:16:42.106Z,29.10
2022-08-20T17:19:18.591Z,29.00
2022-08-20T17:21:50.558Z,28.90
2022-08-20T17:24:26.060Z,28.80
2022-08-20T17:27:01.059Z,28.80
2022-08-20T17:29:33.078Z,28.70
2022-08-20T17:32:17.654Z,28.60
2022-08-20T17:34:49.103Z,28.60
2022-08-20T17:37:23.285Z,28.50
2022-08-20T17:39:55.084Z,28.40
2022-08-20T17:42:27.642Z,28.40
2022-08-20T17:45:05.272Z,28.30
2022-08-20T17:47:38.581Z,28.20
2022-08-20T17:50:14.068Z,28.20
2022-08-20T17:52:48.450Z,28.10
2022-08-20T17:55:16.633Z,28.10
2022-08-20T17:57:53.309Z,28.00
2022-08-20T18:00:25.669Z,28.00
2022-08-20T18:02:56.086Z,27.90
2022-08-20T18:05:25.079Z,27.90
2022-08-20T18:08:15.857Z,27.80
2022-08-20T18:10:53.730Z,27.70
2022-08-20T18:13:34.379Z,27.70
2022-08-20T18:16:05.184Z,27.60
2022-08-20T18:18:56.606Z,27.60
2022-08-20T18:22:09.433Z,27.50
2022-08-20T18:24:44.183Z,27.50
2022-08-20T18:27:18.411Z,27.40
2022-08-20T18:29:55.319Z,27.40
2022-08-20T18:32:30.465Z,27.40
2022-08-20T18:35:14.180Z,27.30
2022-08-20T18:37:42.311Z,27.30
2022-08-20T18:40:19.593Z,27.30
2022-08-20T18:42:47.901Z,27.30
2022-08-20T18:45:29.908Z,27.20
2022-08-20T18:48:01.065Z,27.10
2022-08-20T18:50:34.934Z,27.10
2022-08-20T18:53:16.753Z,27.10
2022-08-20T18:55:48.613Z,27.00
2022-08-20T18:58:31.101Z,26.90
2022-08-20T19:01:03.168Z,26.80
2022-08-20T19:03:40.344Z,26.80
2022-08-20T19:06:23.454Z,26.80
2022-08-20T19:08:56.124Z,26.70
2022-08-20T19:12:08.965Z,26.70
2022-08-20T19:14:53.731Z,26.70
2022-08-20T19:17:32.513Z,26.60
2022-08-20T19:20:03.454Z,26.60
2022-08-20T19:22:35.264Z,26.50
2022-08-20T19:25:03.430Z,26.50
2022-08-20T19:27:32.102Z,26.50
2022-08-20T19:30:00.205Z,26.40
2022-08-20T19:32:31.448Z,26.40
2022-08-20T19:35:02.208Z,26.40
2022-08-20T19:37:39.894Z,26.40
2022-08-20T19:40:28.354Z,26.30
2022-08-20T19:42:59.194Z,26.20
2022-08-20T19:45:33.175Z,26.20
2022-08-20T19:48:27.130Z,26.10
2022-08-20T19:51:03.991Z,26.10
2022-08-20T19:53:34.169Z,26.10
2022-08-20T19:56:07.836Z,26.00
2022-08-20T19:58:37.081Z,26.10
2022-08-20T20:01:10.658Z,26.00
2022-08-20T20:03:40.448Z,26.00
2022-08-20T20:06:16.869Z,25.90
2022-08-20T20:08:58.747Z,25.90
2022-08-20T20:11:35.518Z,25.90
2022-08-20T20:14:08.960Z,25.80
2022-08-20T20:16:38.178Z,25.80
2022-08-20T20:19:25.790Z,25.70
2022-08-20T20:22:05.168Z,25.80
2022-08-20T20:24:41.932Z,25.70
2022-08-20T20:27:20.040Z,25.70
2022-08-20T20:29:49.251Z,25.70
2022-08-20T20:32:21.554Z,25.60
2022-08-20T20:34:56.161Z,25.60
2022-08-20T20:37:47.907Z,25.60
2022-08-20T20:40:25.479Z,25.60
2022-08-20T20:43:04.679Z,25.60
2022-08-20T20:45:36.423Z,25.50
2022-08-20T20:48:17.328Z,25.50
2022-08-20T20:50:48.610Z,25.50
2022-08-20T20:53:47.242Z,25.40
2022-08-20T20:56:30.745Z,25.40
2022-08-20T20:59:02.550Z,25.40
2022-08-20T21:01:49.297Z,25.40
2022-08-20T21:04:19.628Z,25.40
2022-08-20T21:06:49.451Z,25.30
2022-08-20T21:09:18.699Z,25.30
2022-08-20T21:11:47.204Z,25.30
2022-08-20T21:14:15.680Z,25.20
2022-08-20T21:16:43.979Z,25.20
2022-08-20T21:19:13.139Z,25.20
2022-08-20T21:21:42.000Z,25.20
2022-08-20T21:24:11.607Z,25.20
2022-08-20T21:26:40.425Z,25.20
2022-08-20T21:29:10.464Z,25.20
2022-08-20T21:31:43.775Z,25.20
2022-08-20T21:34:13.063Z,25.20
2022-08-20T21:36:41.334Z,25.20
2022-08-20T21:39:09.446Z,25.20
2022-08-20T21:41:40.166Z,25.20
2022-08-20T21:44:13.239Z,25.20
2022-08-20T21:46:41.277Z,25.10
2022-08-20T21:49:09.508Z,25.10
2022-08-20T21:51:37.653Z,25.10
2022-08-20T21:54:05.710Z,25.10
2022-08-20T21:56:34.743Z,25.10
2022-08-20T21:59:05.168Z,25.10
2022-08-20T22:01:33.596Z,25.10
2022-08-20T22:04:01.752Z,25.10
2022-08-20T22:06:31.320Z,25.10
2022-08-20T22:08:59.856Z,25.10
2022-08-20T22:11:28.461Z,25.10
2022-08-20T22:13:56.540Z,25.00
2022-08-20T22:16:26.434Z,25.00
2022-08-20T22:18:54.566Z,25.00
2022-08-20T22:21:25.169Z,25.00
2022-08-20T22:23:55.655Z,24.90
2022-08-20T22:26:23.685Z,24.90
2022-08-20T22:28:55.545Z,24.80
2022-08-20T22:31:29.735Z,24.80
2022-08-20T22:33:59.001Z,24.80
2022-08-20T22:36:33.352Z,24.80
2022-08-20T22:39:02.097Z,24.80
2022-08-20T22:41:30.411Z,24.80
2022-08-20T22:43:58.475Z,24.80
2022-08-20T22:46:31.609Z,24.80
2022-08-20T22:48:59.729Z,24.70
2022-08-20T22:51:30.888Z,24.70
2022-08-20T22:53:59.299Z,24.60
2022-08-20T22:56:29.850Z,24.60
2022-08-20T22:58:59.527Z,24.60
2022-08-20T23:01:29.636Z,24.60
2022-08-20T23:03:59.585Z,24.60
2022-08-20T23:06:31.914Z,24.50
2022-08-20T23:09:00.078Z,24.50
2022-08-20T23:11:28.190Z,24.50
2022-08-20T23:13:57.003Z,24.50
2022-08-20T23:16:28.776Z,24.40
2022-08-20T23:18:56.966Z,24.50
2022-08-20T23:21:25.539Z,24.40
2022-08-20T23:23:53.628Z,24.40
2022-08-20T23:26:23.273Z,24.30
2022-08-20T23:28:51.577Z,24.30
2022-08-20T23:31:19.630Z,24.30
2022-08-20T23:33:49.075Z,24.30
2022-08-20T23:36:20.251Z,24.20
2022-08-20T23:38:48.282Z,24.20
2022-08-20T23:41:16.605Z,24.10
2022-08-20T23:43:44.932Z,24.10
2022-08-20T23:46:13.612Z,24.10
2022-08-20T23:48:41.696Z,24.00
2022-08-20T23:51:11.255Z,24.00
2022-08-20T23:53:39.775Z,24.00
2022-08-20T23:56:08.181Z,23.90
2022-08-20T23:58:37.123Z,23.90
